Time;durP1;ratioP1;P1;durP2;ratioP2;P2;SDS_P1;SDS_P2;PMS_P1;PMS_P2;Temp;Humidity;BMP_temperature;BMP_pressure;BME280_temperature;BME280_humidity;BME280_pressure;Samples;Min_cycle;Max_cycle;Signal;HPM_P1;HPM_P2
2021/05/16 00:00:05;;;;;;;6.00;5.40;;;;;;;;;;10320816;28;20088;-63
2021/05/16 00:05:06;;;;;;;7.32;5.20;;;;;;;;;;10321700;28;20503;-63
2021/05/16 00:10:05;;;;;;;5.72;4.97;;;;;;;;;;10321229;28;20078;-63
2021/05/16 00:15:04;;;;;;;6.55;5.50;;;;;;;;;;10320740;28;20044;-63
2021/05/16 00:20:03;;;;;;;8.30;7.50;;;;;;;;;;10320946;28;20080;-63
2021/05/16 00:25:01;;;;;;;7.63;5.80;;;;;;;;;;10320766;28;20048;-63
2021/05/16 00:30:00;;;;;;;9.20;5.82;;;;;;;;;;10320579;28;20520;-63
2021/05/16 00:34:58;;;;;;;12.25;5.82;;;;;;;;;;10318327;28;20044;-63
2021/05/16 00:39:57;;;;;;;6.25;5.07;;;;;;;;;;10319857;28;20493;-63
2021/05/16 00:44:58;;;;;;;6.63;4.47;;;;;;;;;;10320094;28;20049;-63
2021/05/16 00:49:57;;;;;;;6.22;5.63;;;;;;;;;;10319560;28;20040;-62
2021/05/16 00:54:55;;;;;;;8.27;5.25;;;;;;;;;;10317651;28;20528;-63
2021/05/16 00:59:53;;;;;;;5.35;4.95;;;;;;;;;;10318593;28;20516;-63
2021/05/16 01:04:51;;;;;;;8.25;5.18;;;;;;;;;;10318978;28;20063;-63
2021/05/16 01:09:50;;;;;;;5.45;4.95;;;;;;;;;;10318858;28;20045;-63
2021/05/16 01:14:54;;;;;;;7.53;5.18;;;;;;;;;;10318485;28;20507;-63
2021/05/16 01:19:52;;;;;;;5.90;5.40;;;;;;;;;;10316967;28;20417;-63
2021/05/16 01:24:51;;;;;;;7.57;5.20;;;;;;;;;;10318242;28;20048;-63
2021/05/16 01:29:49;;;;;;;9.57;7.03;;;;;;;;;;10315625;28;20524;-63
2021/05/16 01:34:47;;;;;;;9.98;6.60;;;;;;;;;;10317961;28;20071;-63
2021/05/16 01:39:48;;;;;;;8.02;6.53;;;;;;;;;;10316021;28;20056;-63
2021/05/16 01:44:47;;;;;;;9.07;5.60;;;;;;;;;;10315809;28;20056;-63
2021/05/16 01:49:47;;;;;;;8.10;6.47;;;;;;;;;;10317462;28;20053;-63
2021/05/16 01:54:46;;;;;;;6.43;5.60;;;;;;;;;;10317538;28;20044;-63
2021/05/16 01:59:44;;;;;;;6.93;5.93;;;;;;;;;;10316707;28;20080;-63
2021/05/16 02:04:44;;;;;;;6.15;5.30;;;;;;;;;;10316221;28;20509;-63
2021/05/16 02:09:43;;;;;;;6.25;5.65;;;;;;;;;;10315333;28;20060;-63
2021/05/16 02:14:41;;;;;;;10.35;7.13;;;;;;;;;;10316942;28;20044;-63
2021/05/16 02:19:39;;;;;;;8.10;7.30;;;;;;;;;;10315904;28;20500;-64
2021/05/16 02:24:39;;;;;;;12.70;7.40;;;;;;;;;;10316797;28;20553;-64
2021/05/16 02:29:40;;;;;;;7.80;7.00;;;;;;;;;;10315115;28;20060;-64
2021/05/16 02:34:40;;;;;;;7.53;6.80;;;;;;;;;;10315223;28;20427;-64
2021/05/16 02:39:43;;;;;;;10.93;7.03;;;;;;;;;;10319846;28;20516;-63
2021/05/16 02:44:42;;;;;;;9.25;7.72;;;;;;;;;;10322797;28;20052;-63
2021/05/16 02:49:40;;;;;;;10.55;7.70;;;;;;;;;;10322959;28;20078;-62
2021/05/16 02:54:38;;;;;;;8.32;7.38;;;;;;;;;;10322204;28;20049;-62
2021/05/16 02:59:37;;;;;;;9.38;7.95;;;;;;;;;;10323381;28;20079;-63
2021/05/16 03:04:35;;;;;;;13.52;7.57;;;;;;;;;;10324039;28;20049;-62
2021/05/16 03:09:35;;;;;;;10.93;9.27;;;;;;;;;;10323499;28;20045;-63
2021/05/16 03:14:33;;;;;;;11.82;10.63;;;;;;;;;;10322053;28;20055;-63
2021/05/16 03:19:32;;;;;;;12.43;11.30;;;;;;;;;;10321281;28;20049;-62
2021/05/16 03:24:31;;;;;;;15.23;8.50;;;;;;;;;;10321487;28;20052;-62
2021/05/16 03:29:31;;;;;;;12.07;7.30;;;;;;;;;;10322760;28;20088;-63
2021/05/16 03:34:29;;;;;;;7.57;6.15;;;;;;;;;;10322806;28;20044;-62
2021/05/16 03:39:28;;;;;;;7.45;6.20;;;;;;;;;;10322398;28;20116;-62
2021/05/16 03:44:26;;;;;;;5.80;5.10;;;;;;;;;;10322308;28;20049;-62
2021/05/16 03:49:24;;;;;;;7.25;5.00;;;;;;;;;;10321743;28;20068;-62
2021/05/16 03:54:22;;;;;;;11.73;4.57;;;;;;;;;;10321628;28;20048;-63
2021/05/16 03:59:20;;;;;;;10.07;4.90;;;;;;;;;;10320999;28;20091;-62
2021/05/16 04:04:18;;;;;;;7.45;4.80;;;;;;;;;;10321404;28;20063;-63
2021/05/16 04:09:16;;;;;;;7.80;3.83;;;;;;;;;;10321486;28;20072;-63
2021/05/16 04:14:15;;;;;;;7.32;4.63;;;;;;;;;;10319920;28;20049;-63
2021/05/16 04:19:14;;;;;;;6.93;4.38;;;;;;;;;;10320777;28;20497;-63
2021/05/16 04:24:12;;;;;;;8.13;4.57;;;;;;;;;;10320707;28;20075;-62
2021/05/16 04:29:10;;;;;;;7.82;4.30;;;;;;;;;;10320316;28;20047;-63
2021/05/16 04:34:08;;;;;;;9.20;4.20;;;;;;;;;;10320254;28;20045;-63
2021/05/16 04:39:07;;;;;;;12.40;5.07;;;;;;;;;;10319962;28;20072;-62
2021/05/16 04:44:05;;;;;;;6.22;3.80;;;;;;;;;;10319887;28;20485;-62
2021/05/16 04:49:03;;;;;;;4.35;3.80;;;;;;;;;;10319671;28;20047;-62
2021/05/16 04:54:01;;;;;;;7.63;3.30;;;;;;;;;;10319023;28;20413;-62
2021/05/16 04:59:17;;;;;;;5.53;3.05;;;;;;;;;;10318410;28;20604;-64
2021/05/16 05:04:15;;;;;;;5.43;3.55;;;;;;;;;;10316769;28;20048;-62
2021/05/16 05:09:13;;;;;;;6.45;3.17;;;;;;;;;;10318056;28;20091;-62
2021/05/16 05:14:12;;;;;;;6.03;3.60;;;;;;;;;;10317201;28;20045;-61
2021/05/16 05:19:09;;;;;;;6.70;3.33;;;;;;;;;;10318296;28;20045;-63
2021/05/16 05:24:12;;;;;;;5.43;3.40;;;;;;;;;;10317167;28;20080;-64
2021/05/16 05:29:10;;;;;;;5.28;3.08;;;;;;;;;;10317148;28;20080;-62
2021/05/16 05:34:09;;;;;;;5.05;2.95;;;;;;;;;;10317489;28;20036;-62
2021/05/16 05:39:07;;;;;;;3.80;3.05;;;;;;;;;;10315325;28;20047;-63
2021/05/16 05:49:48;;;;;;;9.23;3.97;;;;;;;;;;10313315;28;20092;-63
2021/05/16 05:55:22;;;;;;;5.63;3.75;;;;;;;;;;10316615;28;20045;-63
2021/05/16 06:06:29;;;;;;;4.97;3.15;;;;;;;;;;10314013;28;20084;-63
2021/05/16 06:11:41;;;;;;;5.03;3.03;;;;;;;;;;10317196;28;20036;-63
2021/05/16 06:23:20;;;;;;;6.55;3.40;;;;;;;;;;10410000;28;20054;-63
2021/05/16 06:28:33;;;;;;;5.38;3.10;;;;;;;;;;10407740;28;20140;-64
2021/05/16 06:33:32;;;;;;;4.45;3.30;;;;;;;;;;10412023;28;20047;-65
2021/05/16 06:44:22;;;;;;;8.10;3.42;;;;;;;;;;10369162;28;20086;-65
2021/05/16 06:49:20;;;;;;;7.32;4.57;;;;;;;;;;10370509;28;20044;-65
2021/05/16 06:54:18;;;;;;;5.85;3.50;;;;;;;;;;10369966;28;20052;-64
2021/05/16 06:59:16;;;;;;;4.93;3.92;;;;;;;;;;10370231;28;20055;-65
2021/05/16 07:04:15;;;;;;;8.82;4.93;;;;;;;;;;10369505;28;20390;-66
2021/05/16 07:09:13;;;;;;;7.32;4.15;;;;;;;;;;10370039;28;20044;-66
2021/05/16 07:14:11;;;;;;;13.43;3.58;;;;;;;;;;10369077;28;20058;-66
2021/05/16 07:19:08;;;;;;;5.25;3.72;;;;;;;;;;10368959;28;20119;-63
2021/05/16 07:24:09;;;;;;;6.63;5.18;;;;;;;;;;10369136;28;20087;-66
2021/05/16 07:29:07;;;;;;;5.00;3.60;;;;;;;;;;10362679;28;20051;-66
2021/05/16 07:34:05;;;;;;;6.13;3.85;;;;;;;;;;10363096;28;20036;-64
2021/05/16 07:39:03;;;;;;;10.57;4.57;;;;;;;;;;10361999;28;20075;-64
2021/05/16 07:44:04;;;;;;;10.15;3.95;;;;;;;;;;10361273;28;20086;-64
2021/05/16 07:49:02;;;;;;;5.93;3.00;;;;;;;;;;10362433;28;20047;-64
2021/05/16 07:54:00;;;;;;;4.82;3.80;;;;;;;;;;10362108;28;20075;-65
2021/05/16 07:58:58;;;;;;;7.25;3.88;;;;;;;;;;10362087;28;20055;-63
2021/05/16 08:03:57;;;;;;;5.03;4.22;;;;;;;;;;10361555;28;20076;-64
2021/05/16 08:08:55;;;;;;;5.35;3.83;;;;;;;;;;10361516;28;20529;-65
2021/05/16 08:13:53;;;;;;;8.07;5.00;;;;;;;;;;10361419;28;20076;-65
2021/05/16 08:18:52;;;;;;;4.65;3.83;;;;;;;;;;10360998;28;20048;-64
2021/05/16 08:23:51;;;;;;;5.05;3.42;;;;;;;;;;10360008;28;20090;-65
2021/05/16 08:28:48;;;;;;;8.10;4.90;;;;;;;;;;10361020;28;20048;-65
2021/05/16 08:33:48;;;;;;;6.40;4.60;;;;;;;;;;10360628;28;20408;-64
2021/05/16 08:38:46;;;;;;;6.95;5.00;;;;;;;;;;10359143;28;20102;-65
2021/05/16 08:43:45;;;;;;;7.32;4.80;;;;;;;;;;10360114;28;20084;-64
2021/05/16 08:48:42;;;;;;;7.20;6.40;;;;;;;;;;10359530;28;20082;-65
2021/05/16 08:53:40;;;;;;;4.00;3.30;;;;;;;;;;10359551;28;20456;-64
2021/05/16 08:58:38;;;;;;;6.60;5.35;;;;;;;;;;10355235;28;20432;-61
2021/05/16 09:03:37;;;;;;;6.40;4.70;;;;;;;;;;10351100;28;20076;-59
2021/05/16 09:08:35;;;;;;;5.75;4.53;;;;;;;;;;10355278;28;20071;-62
2021/05/16 09:13:33;;;;;;;9.15;5.82;;;;;;;;;;10336252;28;20068;-61
2021/05/16 09:18:35;;;;;;;4.20;3.55;;;;;;;;;;10350564;28;20473;-63
2021/05/16 09:23:33;;;;;;;8.68;3.60;;;;;;;;;;10352977;28;20082;-61
2021/05/16 09:28:31;;;;;;;5.85;3.58;;;;;;;;;;10354890;28;20068;-62
2021/05/16 09:33:29;;;;;;;5.95;4.75;;;;;;;;;;10356862;28;20079;-62
2021/05/16 09:38:29;;;;;;;6.63;4.75;;;;;;;;;;10349642;28;20064;-61
2021/05/16 09:43:28;;;;;;;4.47;3.35;;;;;;;;;;10347526;28;20091;-62
2021/05/16 09:48:30;;;;;;;6.65;4.40;;;;;;;;;;10353087;28;20087;-62
2021/05/16 09:53:30;;;;;;;5.47;4.18;;;;;;;;;;10358882;28;20079;-63
2021/05/16 09:58:29;;;;;;;6.78;3.70;;;;;;;;;;10357098;28;20078;-62
2021/05/16 10:03:28;;;;;;;4.80;3.22;;;;;;;;;;10351445;28;20086;-62
2021/05/16 10:08:25;;;;;;;4.10;3.70;;;;;;;;;;10337099;28;20047;-64
2021/05/16 10:13:25;;;;;;;7.15;5.03;;;;;;;;;;10354776;28;20125;-64
2021/05/16 10:18:25;;;;;;;5.03;4.53;;;;;;;;;;10356093;28;20055;-64
2021/05/16 10:23:33;;;;;;;4.80;4.18;;;;;;;;;;10357241;28;20091;-64
2021/05/16 10:28:46;;;;;;;5.57;4.10;;;;;;;;;;10356849;28;20079;-63
2021/05/16 10:33:45;;;;;;;4.03;3.50;;;;;;;;;;10350320;28;20079;-63
2021/05/16 10:38:46;;;;;;;5.47;3.70;;;;;;;;;;10355692;28;20048;-64
2021/05/16 10:43:44;;;;;;;6.22;3.80;;;;;;;;;;10356685;28;20083;-64
2021/05/16 10:48:42;;;;;;;4.10;3.70;;;;;;;;;;10356529;28;20067;-63
2021/05/16 10:53:42;;;;;;;7.50;4.05;;;;;;;;;;10356396;28;20043;-63
2021/05/16 10:58:44;;;;;;;3.65;3.35;;;;;;;;;;10355366;28;20052;-63
2021/05/16 11:03:43;;;;;;;13.48;4.28;;;;;;;;;;10361017;28;20495;-62
2021/05/16 11:09:09;;;;;;;3.90;3.40;;;;;;;;;;10362874;28;20040;-63
2021/05/16 11:14:15;;;;;;;24.55;4.88;;;;;;;;;;10359064;28;20087;-63
2021/05/16 11:19:13;;;;;;;12.07;4.30;;;;;;;;;;10358925;28;20068;-63
2021/05/16 11:24:11;;;;;;;3.38;2.90;;;;;;;;;;10360344;28;20310;-64
2021/05/16 11:29:09;;;;;;;16.08;3.75;;;;;;;;;;10359648;28;20091;-63
2021/05/16 11:34:07;;;;;;;8.82;3.78;;;;;;;;;;10362386;28;20052;-64
2021/05/16 11:39:08;;;;;;;3.88;3.20;;;;;;;;;;10362941;28;20074;-67
2021/05/16 11:44:07;;;;;;;6.53;3.03;;;;;;;;;;10368756;28;20154;-67
2021/05/16 11:49:05;;;;;;;10.25;4.63;;;;;;;;;;10364761;28;20052;-66
2021/05/16 11:54:05;;;;;;;9.68;4.43;;;;;;;;;;10377826;28;20060;-67
2021/05/16 11:59:04;;;;;;;7.13;3.67;;;;;;;;;;10379233;28;20504;-66
2021/05/16 12:04:02;;;;;;;5.53;3.13;;;;;;;;;;10369271;28;20102;-65
2021/05/16 12:09:07;;;;;;;8.55;3.53;;;;;;;;;;10361082;28;20105;-62
2021/05/16 12:14:09;;;;;;;9.05;4.60;;;;;;;;;;10360994;28;20040;-64
2021/05/16 12:19:08;;;;;;;5.72;3.88;;;;;;;;;;10354997;28;20052;-64
2021/05/16 12:24:09;;;;;;;5.30;3.90;;;;;;;;;;10360007;28;20067;-64
2021/05/16 12:29:07;;;;;;;6.00;4.10;;;;;;;;;;10360518;28;20067;-65
2021/05/16 12:34:05;;;;;;;8.20;4.07;;;;;;;;;;10359621;28;20067;-65
2021/05/16 12:39:04;;;;;;;10.52;4.15;;;;;;;;;;10358519;28;20071;-65
2021/05/16 12:44:07;;;;;;;25.42;6.93;;;;;;;;;;10358101;28;20064;-64
2021/05/16 12:49:05;;;;;;;10.00;4.32;;;;;;;;;;10357434;28;20052;-65
2021/05/16 12:54:19;;;;;;;4.35;3.95;;;;;;;;;;10358572;28;20059;-65
2021/05/16 12:59:25;;;;;;;26.45;7.55;;;;;;;;;;10361967;28;20047;-65
2021/05/16 13:04:23;;;;;;;6.85;4.07;;;;;;;;;;10352996;28;20072;-65
2021/05/16 13:09:27;;;;;;;7.63;3.67;;;;;;;;;;10368912;28;20086;-66
2021/05/16 13:14:25;;;;;;;;;;;;;;;;;;10355743;28;20079;-65
2021/05/16 13:19:33;;;;;;;13.90;4.57;;;;;;;;;;10355469;28;20360;-65
2021/05/16 13:24:46;;;;;;;8.95;3.30;;;;;;;;;;10351790;28;20517;-66
2021/05/16 13:29:46;;;;;;;7.90;4.38;;;;;;;;;;10347264;28;20068;-66
2021/05/16 13:34:46;;;;;;;6.07;4.88;;;;;;;;;;10345307;28;20095;-65
2021/05/16 13:39:45;;;;;;;14.40;5.85;;;;;;;;;;10357025;28;20492;-65
2021/05/16 13:44:42;;;;;;;5.95;4.65;;;;;;;;;;10353058;28;20083;-65
2021/05/16 13:49:40;;;;;;;8.65;5.40;;;;;;;;;;10356469;28;20413;-65
2021/05/16 13:54:39;;;;;;;7.97;5.45;;;;;;;;;;10352745;28;20063;-67
2021/05/16 13:59:37;;;;;;;4.70;4.00;;;;;;;;;;10354602;28;20068;-66
2021/05/16 14:04:35;;;;;;;7.35;4.07;;;;;;;;;;10355658;28;20086;-66
2021/05/16 14:09:33;;;;;;;8.43;5.30;;;;;;;;;;10356763;28;20055;-67
2021/05/16 14:14:32;;;;;;;8.13;4.93;;;;;;;;;;10339273;28;20040;-67
2021/05/16 14:19:29;;;;;;;9.15;4.68;;;;;;;;;;10357408;28;20040;-66
2021/05/16 14:24:27;;;;;;;19.52;13.95;;;;;;;;;;10356999;28;20475;-66
2021/05/16 14:29:25;;;;;;;7.97;3.72;;;;;;;;;;10356953;28;20079;-66
2021/05/16 14:34:24;;;;;;;9.63;5.75;;;;;;;;;;10358311;28;20044;-66
2021/05/16 14:39:22;;;;;;;4.60;3.83;;;;;;;;;;10365068;28;20094;-66
2021/05/16 14:44:20;;;;;;;12.27;4.90;;;;;;;;;;10364630;28;20079;-66
2021/05/16 14:49:18;;;;;;;8.88;6.40;;;;;;;;;;10364919;28;20040;-66
2021/05/16 14:54:17;;;;;;;7.03;4.93;;;;;;;;;;10364851;28;20040;-65
2021/05/16 14:59:15;;;;;;;7.78;5.72;;;;;;;;;;10364260;28;20279;-65
2021/05/16 15:04:13;;;;;;;12.00;5.45;;;;;;;;;;10363416;28;20077;-65
2021/05/16 15:09:11;;;;;;;7.60;5.82;;;;;;;;;;10362991;28;20094;-66
2021/05/16 15:14:10;;;;;;;9.85;8.65;;;;;;;;;;10363438;28;20048;-65
2021/05/16 15:19:08;;;;;;;14.95;6.35;;;;;;;;;;10363020;28;20717;-65
2021/05/16 15:24:06;;;;;;;7.20;4.85;;;;;;;;;;10363187;28;20080;-65
2021/05/16 15:29:04;;;;;;;5.53;4.30;;;;;;;;;;10362381;28;20090;-65
2021/05/16 15:34:03;;;;;;;11.27;5.70;;;;;;;;;;10362614;28;20048;-65
2021/05/16 15:39:04;;;;;;;16.65;8.02;;;;;;;;;;10362357;28;20044;-65
2021/05/16 15:44:02;;;;;;;18.80;8.40;;;;;;;;;;10361488;28;20075;-64
2021/05/16 15:49:00;;;;;;;15.10;8.07;;;;;;;;;;10361172;28;20091;-65
2021/05/16 15:53:59;;;;;;;10.23;5.95;;;;;;;;;;10361559;28;20051;-64
2021/05/16 15:58:58;;;;;;;13.60;6.47;;;;;;;;;;10343490;28;20048;-64
2021/05/16 16:03:56;;;;;;;9.32;6.47;;;;;;;;;;10361032;28;20076;-66
2021/05/16 16:08:54;;;;;;;8.57;5.65;;;;;;;;;;10361251;28;20512;-65
2021/05/16 16:13:53;;;;;;;8.82;5.20;;;;;;;;;;10361038;28;20048;-65
2021/05/16 16:18:51;;;;;;;14.48;5.47;;;;;;;;;;10360997;28;20051;-65
2021/05/16 16:23:49;;;;;;;9.00;5.47;;;;;;;;;;10360783;28;20676;-66
2021/05/16 16:28:47;;;;;;;11.20;7.13;;;;;;;;;;10360624;28;20048;-66
2021/05/16 16:33:46;;;;;;;6.43;5.82;;;;;;;;;;10360375;28;20044;-66
2021/05/16 16:38:43;;;;;;;8.25;6.05;;;;;;;;;;10360386;28;20047;-66
2021/05/16 16:43:41;;;;;;;10.98;6.18;;;;;;;;;;10359856;28;20532;-66
2021/05/16 16:48:39;;;;;;;6.90;6.30;;;;;;;;;;10360311;28;20084;-67
2021/05/16 16:53:38;;;;;;;6.60;5.38;;;;;;;;;;10358962;28;20048;-66
2021/05/16 16:58:36;;;;;;;7.13;5.30;;;;;;;;;;10359210;28;20048;-65
2021/05/16 17:03:34;;;;;;;7.25;5.93;;;;;;;;;;10359511;28;20076;-65
2021/05/16 17:08:32;;;;;;;11.73;8.98;;;;;;;;;;10360601;28;20495;-66
2021/05/16 17:13:31;;;;;;;23.02;17.92;;;;;;;;;;10359312;28;20079;-66
2021/05/16 17:18:29;;;;;;;11.77;8.10;;;;;;;;;;10360323;28;20039;-65
2021/05/16 17:23:27;;;;;;;3.13;2.83;;;;;;;;;;10359118;28;20087;-65
2021/05/16 17:28:25;;;;;;;4.05;3.70;;;;;;;;;;10358979;28;20481;-65
2021/05/16 17:33:24;;;;;;;5.30;4.40;;;;;;;;;;10358553;28;20056;-65
2021/05/16 17:38:22;;;;;;;6.95;3.88;;;;;;;;;;10358252;28;20093;-65
2021/05/16 17:43:20;;;;;;;3.95;2.85;;;;;;;;;;10358239;28;20083;-66
2021/05/16 17:48:18;;;;;;;3.10;2.65;;;;;;;;;;10359192;28;20040;-67
2021/05/16 17:53:17;;;;;;;6.63;3.67;;;;;;;;;;10358021;28;20044;-66
2021/05/16 17:58:14;;;;;;;6.22;5.35;;;;;;;;;;10357487;28;20052;-66
2021/05/16 18:03:14;;;;;;;16.95;13.90;;;;;;;;;;10357022;28;20083;-66
2021/05/16 18:08:12;;;;;;;22.13;18.73;;;;;;;;;;10351021;28;20072;-65
2021/05/16 18:13:10;;;;;;;9.32;7.05;;;;;;;;;;10352834;28;20123;-65
2021/05/16 18:18:09;;;;;;;7.95;4.80;;;;;;;;;;10353868;28;20068;-65
2021/05/16 18:23:07;;;;;;;7.03;6.32;;;;;;;;;;10347472;28;20086;-65
2021/05/16 18:28:05;;;;;;;4.88;4.15;;;;;;;;;;10343086;28;20068;-64
2021/05/16 18:33:04;;;;;;;8.77;3.90;;;;;;;;;;10344424;28;20076;-65
2021/05/16 18:38:02;;;;;;;3.63;3.33;;;;;;;;;;10347365;28;20090;-64
2021/05/16 18:43:00;;;;;;;6.65;3.15;;;;;;;;;;10336104;28;20087;-66
2021/05/16 18:47:58;;;;;;;12.52;6.63;;;;;;;;;;10341181;28;20044;-65
2021/05/16 18:52:57;;;;;;;4.40;3.40;;;;;;;;;;10337115;28;20096;-65
2021/05/16 18:58:00;;;;;;;3.38;3.08;;;;;;;;;;10345382;28;20508;-64
2021/05/16 19:02:58;;;;;;;2.30;2.10;;;;;;;;;;10335462;28;20083;-66
2021/05/16 19:07:57;;;;;;;4.78;2.97;;;;;;;;;;10355991;28;20123;-64
2021/05/16 19:12:55;;;;;;;5.53;2.97;;;;;;;;;;10348774;28;20070;-65
2021/05/16 19:17:53;;;;;;;4.63;3.50;;;;;;;;;;10350825;28;20040;-65
2021/05/16 19:22:53;;;;;;;6.55;3.33;;;;;;;;;;10359366;28;20527;-63
2021/05/16 19:27:52;;;;;;;5.72;3.63;;;;;;;;;;10361358;28;20044;-64
2021/05/16 19:32:49;;;;;;;4.82;3.22;;;;;;;;;;10359477;28;20094;-64
2021/05/16 19:37:47;;;;;;;6.15;3.00;;;;;;;;;;10362962;28;20047;-64
2021/05/16 19:42:45;;;;;;;6.43;3.47;;;;;;;;;;10360757;28;20087;-64
2021/05/16 19:47:44;;;;;;;6.82;3.40;;;;;;;;;;10348224;28;20068;-64
2021/05/16 19:52:42;;;;;;;10.13;6.28;;;;;;;;;;10346208;28;20075;-64
2021/05/16 19:57:40;;;;;;;6.95;5.07;;;;;;;;;;10359378;28;20072;-65
2021/05/16 20:02:38;;;;;;;7.57;4.70;;;;;;;;;;10361045;28;20052;-63
2021/05/16 20:07:37;;;;;;;7.88;4.78;;;;;;;;;;10361841;28;20076;-64
2021/05/16 20:12:34;;;;;;;5.10;4.60;;;;;;;;;;10356183;28;20095;-65
2021/05/16 20:17:33;;;;;;;8.65;5.57;;;;;;;;;;10359346;28;20516;-64
2021/05/16 20:22:30;;;;;;;9.73;4.72;;;;;;;;;;10359629;28;20048;-64
2021/05/16 20:27:30;;;;;;;6.72;5.03;;;;;;;;;;10359181;28;20068;-64
2021/05/16 20:32:28;;;;;;;8.32;4.82;;;;;;;;;;10360328;28;20051;-64
2021/05/16 20:37:26;;;;;;;5.78;5.28;;;;;;;;;;10360621;28;20075;-65
2021/05/16 20:42:23;;;;;;;7.88;5.57;;;;;;;;;;10360845;28;20094;-65
2021/05/16 20:47:22;;;;;;;7.40;5.75;;;;;;;;;;10360087;28;20052;-65
2021/05/16 20:52:20;;;;;;;8.05;6.40;;;;;;;;;;10360449;28;20413;-65
2021/05/16 20:57:18;;;;;;;6.65;5.93;;;;;;;;;;10360247;28;20052;-65
2021/05/16 21:02:15;;;;;;;6.45;5.65;;;;;;;;;;10360070;28;20044;-66
2021/05/16 21:07:14;;;;;;;6.80;5.72;;;;;;;;;;10359565;28;20090;-66
2021/05/16 21:12:14;;;;;;;11.07;5.50;;;;;;;;;;10358390;28;20044;-63
2021/05/16 21:17:14;;;;;;;8.20;6.10;;;;;;;;;;10358083;28;20460;-65
2021/05/16 21:22:12;;;;;;;6.97;5.30;;;;;;;;;;10359220;28;20078;-65
2021/05/16 21:27:11;;;;;;;6.45;5.28;;;;;;;;;;10358679;28;20524;-66
2021/05/16 21:32:09;;;;;;;8.27;5.53;;;;;;;;;;10358932;28;20075;-65
2021/05/16 21:37:07;;;;;;;5.30;4.90;;;;;;;;;;10358882;28;20059;-66
2021/05/16 21:42:05;;;;;;;6.22;4.88;;;;;;;;;;10358612;28;20048;-65
2021/05/16 21:47:04;;;;;;;6.03;4.60;;;;;;;;;;10357578;28;20067;-65
2021/05/16 21:52:02;;;;;;;5.85;4.45;;;;;;;;;;10358163;28;20055;-65
2021/05/16 21:57:01;;;;;;;11.00;4.28;;;;;;;;;;10358134;28;20067;-65
2021/05/16 22:01:59;;;;;;;6.85;4.82;;;;;;;;;;10358199;28;20048;-65
2021/05/16 22:07:12;;;;;;;5.60;4.57;;;;;;;;;;10357893;28;20076;-65
2021/05/16 22:12:10;;;;;;;8.10;5.03;;;;;;;;;;10357362;28;20040;-65
2021/05/16 22:17:07;;;;;;;9.65;5.20;;;;;;;;;;10357495;28;20048;-65
2021/05/16 22:22:05;;;;;;;8.90;4.75;;;;;;;;;;10357725;28;20044;-65
2021/05/16 22:27:04;;;;;;;8.85;5.30;;;;;;;;;;10356366;28;20075;-65
2021/05/16 22:32:02;;;;;;;6.82;4.93;;;;;;;;;;10357653;28;20378;-65
2021/05/16 22:37:01;;;;;;;6.32;4.40;;;;;;;;;;10356521;28;20044;-65
2021/05/16 22:42:00;;;;;;;8.05;4.35;;;;;;;;;;10356947;28;20060;-66
2021/05/16 22:46:59;;;;;;;4.88;4.38;;;;;;;;;;10356994;28;20527;-65
2021/05/16 22:51:58;;;;;;;4.85;4.35;;;;;;;;;;10356574;28;20051;-65
2021/05/16 22:56:55;;;;;;;5.68;5.10;;;;;;;;;;10360762;28;20051;-65
2021/05/16 23:01:54;;;;;;;5.55;4.80;;;;;;;;;;10364652;28;20040;-65
2021/05/16 23:06:53;;;;;;;5.70;5.00;;;;;;;;;;10364446;28;20079;-65
2021/05/16 23:11:51;;;;;;;5.88;5.38;;;;;;;;;;10364288;28;20500;-66
2021/05/16 23:16:49;;;;;;;6.03;5.43;;;;;;;;;;10363800;28;20048;-65
2021/05/16 23:21:47;;;;;;;7.13;5.95;;;;;;;;;;10363694;28;20052;-65
2021/05/16 23:26:46;;;;;;;14.15;5.82;;;;;;;;;;10363073;28;20048;-66
2021/05/16 23:31:45;;;;;;;7.22;5.65;;;;;;;;;;10363441;28;20059;-65
2021/05/16 23:36:43;;;;;;;7.50;5.80;;;;;;;;;;10362759;28;20074;-66
2021/05/16 23:41:41;;;;;;;7.30;6.40;;;;;;;;;;10363128;28;20102;-66
2021/05/16 23:46:40;;;;;;;6.57;5.97;;;;;;;;;;10362257;28;20091;-65
2021/05/16 23:51:38;;;;;;;6.22;5.60;;;;;;;;;;10362647;28;20047;-65
2021/05/16 23:56:36;;;;;;;6.07;5.47;;;;;;;;;;10362380;28;20036;-66
